createdAt,value
2023-02-02T00:01:20.253Z,11.63
2023-02-02T00:03:48.968Z,13.93
2023-02-02T00:06:16.673Z,12.20
2023-02-02T00:08:45.693Z,17.57
2023-02-02T00:11:13.467Z,14.40
2023-02-02T00:13:41.195Z,12.07
2023-02-02T00:16:37.601Z,13.80
2023-02-02T00:19:06.638Z,14.10
2023-02-02T00:21:34.419Z,12.50
2023-02-02T00:24:03.528Z,14.73
2023-02-02T00:26:31.461Z,15.80
2023-02-02T00:28:59.270Z,11.93
2023-02-02T00:31:27.208Z,16.30
2023-02-02T00:33:54.913Z,13.53
2023-02-02T00:36:22.813Z,11.67
2023-02-02T00:38:51.189Z,13.33
2023-02-02T00:41:21.357Z,14.77
2023-02-02T00:44:09.626Z,14.37
2023-02-02T00:46:39.088Z,10.33
2023-02-02T00:49:06.899Z,14.93
2023-02-02T00:51:34.526Z,13.23
2023-02-02T00:54:02.475Z,15.83
2023-02-02T00:56:31.526Z,10.50
2023-02-02T00:58:59.456Z,11.93
2023-02-02T01:01:27.144Z,16.87
2023-02-02T01:03:54.966Z,16.10
2023-02-02T01:06:22.749Z,14.27
2023-02-02T01:08:50.432Z,14.17
2023-02-02T01:11:18.389Z,11.73
2023-02-02T01:13:47.505Z,13.53
2023-02-02T01:16:15.932Z,8.37
2023-02-02T01:18:43.639Z,13.27
2023-02-02T01:21:12.432Z,11.07
2023-02-02T01:23:40.172Z,7.93
2023-02-02T01:26:09.229Z,10.40
2023-02-02T01:28:37.157Z,11.93
2023-02-02T01:31:08.834Z,8.37
2023-02-02T01:33:36.537Z,5.80
2023-02-02T01:36:05.706Z,5.63
2023-02-02T01:38:33.446Z,3.33
2023-02-02T01:41:01.524Z,3.73
2023-02-02T01:43:30.773Z,4.43
2023-02-02T01:45:59.276Z,6.37
2023-02-02T01:48:29.820Z,8.90
2023-02-02T01:50:59.188Z,10.80
2023-02-02T01:53:26.876Z,12.73
2023-02-02T01:56:02.902Z,17.23
2023-02-02T01:58:32.652Z,15.77
2023-02-02T02:01:00.533Z,19.57
2023-02-02T02:03:31.902Z,16.67
2023-02-02T02:06:02.382Z,18.53
2023-02-02T02:08:31.833Z,19.73
2023-02-02T02:10:59.487Z,15.77
2023-02-02T02:13:48.370Z,19.60
2023-02-02T02:16:19.235Z,19.80
2023-02-02T02:18:51.820Z,22.97
2023-02-02T02:21:56.746Z,23.20
2023-02-02T02:25:23.822Z,20.07
2023-02-02T02:28:22.543Z,14.50
2023-02-02T02:31:27.622Z,12.90
2023-02-02T02:33:58.639Z,17.53
2023-02-02T02:36:30.955Z,22.63
2023-02-02T02:39:09.930Z,16.73
2023-02-02T02:41:40.445Z,14.43
2023-02-02T02:44:10.602Z,18.20
2023-02-02T02:46:38.301Z,14.03
2023-02-02T02:49:08.919Z,15.90
2023-02-02T02:51:47.308Z,20.77
2023-02-02T02:54:16.416Z,19.70
2023-02-02T02:57:05.742Z,13.93
2023-02-02T02:59:37.406Z,18.83
2023-02-02T03:02:16.796Z,15.23
2023-02-02T03:04:48.546Z,11.47
2023-02-02T03:07:18.840Z,17.40
2023-02-02T03:12:20.701Z,18.13
2023-02-02T03:14:48.413Z,18.40
2023-02-02T03:17:16.212Z,12.13
2023-02-02T03:19:43.887Z,14.00
2023-02-02T03:22:14.134Z,14.63
2023-02-02T03:24:41.827Z,14.73
2023-02-02T03:27:09.605Z,15.30
2023-02-02T03:29:37.770Z,14.33
2023-02-02T03:32:06.211Z,16.97
2023-02-02T03:34:33.957Z,20.87
2023-02-02T03:37:01.779Z,17.67
2023-02-02T03:39:30.801Z,20.20
2023-02-02T03:41:58.582Z,15.23
2023-02-02T03:44:26.334Z,22.47
2023-02-02T03:46:55.318Z,19.13
2023-02-02T03:49:22.968Z,14.40
2023-02-02T03:51:50.679Z,24.47
2023-02-02T03:54:18.349Z,19.03
2023-02-02T03:56:47.501Z,18.60
2023-02-02T03:59:15.157Z,21.27
2023-02-02T04:01:42.913Z,16.50
2023-02-02T04:04:10.622Z,21.77
2023-02-02T04:06:38.301Z,23.80
2023-02-02T04:09:05.961Z,26.93
2023-02-02T04:11:33.606Z,27.60
2023-02-02T04:14:02.676Z,23.30
2023-02-02T04:16:34.691Z,18.77
2023-02-02T04:19:02.478Z,20.37
2023-02-02T04:21:30.146Z,20.70
2023-02-02T04:23:57.997Z,17.73
2023-02-02T04:26:26.500Z,22.33
2023-02-02T04:28:54.240Z,21.37
2023-02-02T04:31:23.214Z,17.53
2023-02-02T04:33:51.004Z,18.60
2023-02-02T04:36:18.803Z,13.33
2023-02-02T04:38:50.152Z,24.37
2023-02-02T04:41:18.678Z,19.33
2023-02-02T04:43:46.745Z,17.37
2023-02-02T04:46:14.512Z,17.73
2023-02-02T04:48:43.674Z,17.27
2023-02-02T04:51:12.182Z,19.47
2023-02-02T04:53:40.072Z,21.63
2023-02-02T04:56:08.306Z,24.83
2023-02-02T04:58:36.052Z,19.47
2023-02-02T05:01:09.721Z,18.67
2023-02-02T05:03:37.439Z,20.83
2023-02-02T05:06:07.090Z,19.87
2023-02-02T05:08:34.793Z,15.33
2023-02-02T05:11:02.501Z,20.30
2023-02-02T05:13:30.304Z,21.57
2023-02-02T05:15:58.099Z,20.60
2023-02-02T05:18:26.392Z,17.33
2023-02-02T05:20:54.961Z,19.23
2023-02-02T05:23:24.220Z,22.30
2023-02-02T05:25:53.356Z,18.10
2023-02-02T05:28:21.136Z,18.87
2023-02-02T05:30:48.866Z,28.23
2023-02-02T05:33:18.347Z,23.33
2023-02-02T05:35:46.143Z,17.00
2023-02-02T05:38:13.873Z,19.20
2023-02-02T05:40:43.093Z,17.90
2023-02-02T05:43:10.898Z,16.00
2023-02-02T05:45:38.614Z,18.77
2023-02-02T05:48:06.644Z,14.93
2023-02-02T05:50:34.306Z,16.50
2023-02-02T05:53:02.340Z,21.83
2023-02-02T05:55:29.980Z,19.80
2023-02-02T05:57:59.154Z,15.43
2023-02-02T06:00:27.019Z,17.87
2023-02-02T06:02:54.785Z,22.73
2023-02-02T06:05:22.979Z,17.87
2023-02-02T06:07:50.959Z,21.60
2023-02-02T06:10:18.720Z,21.70
2023-02-02T06:12:46.394Z,15.17
2023-02-02T06:15:15.688Z,21.43
2023-02-02T06:17:43.432Z,17.93
2023-02-02T06:20:14.372Z,23.40
2023-02-02T06:22:43.823Z,21.23
2023-02-02T06:25:11.499Z,28.63
2023-02-02T06:27:39.399Z,18.73
2023-02-02T06:30:08.035Z,15.17
2023-02-02T06:32:37.158Z,18.37
2023-02-02T06:35:05.308Z,19.37
2023-02-02T06:37:34.164Z,21.23
2023-02-02T06:40:01.980Z,19.33
2023-02-02T06:42:30.620Z,18.77
2023-02-02T06:44:58.317Z,20.90
2023-02-02T06:47:26.985Z,21.70
2023-02-02T06:49:56.093Z,14.73
2023-02-02T06:52:23.914Z,12.90
2023-02-02T06:54:51.854Z,27.87
2023-02-02T06:57:22.638Z,27.37
2023-02-02T06:59:51.265Z,26.30
2023-02-02T07:02:20.016Z,14.43
2023-02-02T07:04:48.988Z,19.93
2023-02-02T07:07:18.141Z,22.40
2023-02-02T07:09:46.179Z,22.00
2023-02-02T07:12:13.833Z,22.30
2023-02-02T07:14:41.600Z,19.63
2023-02-02T07:17:09.242Z,18.40
2023-02-02T07:19:36.995Z,19.60
2023-02-02T07:22:04.784Z,20.43
2023-02-02T07:24:33.857Z,20.80
2023-02-02T07:27:01.511Z,23.17
2023-02-02T07:29:29.261Z,24.93
2023-02-02T07:31:56.987Z,21.50
2023-02-02T07:34:24.892Z,29.77
2023-02-02T07:36:52.552Z,24.87
2023-02-02T07:39:20.368Z,23.33
2023-02-02T07:41:49.399Z,20.17
2023-02-02T07:44:18.028Z,27.57
2023-02-02T07:46:46.876Z,24.00
2023-02-02T07:49:15.122Z,19.23
2023-02-02T07:51:47.202Z,25.87
2023-02-02T07:54:15.605Z,23.37
2023-02-02T07:56:43.269Z,30.30
2023-02-02T07:59:12.557Z,19.93
2023-02-02T08:01:40.283Z,16.30
2023-02-02T08:04:08.126Z,20.63
2023-02-02T08:06:36.526Z,20.67
2023-02-02T08:09:05.328Z,26.60
2023-02-02T08:11:33.150Z,29.67
2023-02-02T08:14:01.815Z,18.53
2023-02-02T08:16:31.784Z,26.87
2023-02-02T08:18:59.879Z,28.53
2023-02-02T08:21:27.826Z,26.17
2023-02-02T08:23:56.030Z,27.57
2023-02-02T08:26:24.722Z,21.13
2023-02-02T08:28:54.117Z,21.33
2023-02-02T08:31:22.908Z,23.13
2023-02-02T08:33:54.131Z,19.53
2023-02-02T08:36:23.187Z,23.50
2023-02-02T08:38:51.383Z,23.00
2023-02-02T08:41:20.429Z,18.47
2023-02-02T08:43:48.210Z,22.57
2023-02-02T08:46:17.243Z,14.63
2023-02-02T08:48:45.202Z,15.73
2023-02-02T08:51:15.612Z,19.93
2023-02-02T08:53:43.336Z,18.70
2023-02-02T08:56:12.259Z,22.20
2023-02-02T08:58:40.093Z,17.37
2023-02-02T09:01:08.404Z,17.23
2023-02-02T09:03:36.231Z,17.03
2023-02-02T09:06:07.532Z,17.60
2023-02-02T09:08:36.794Z,16.37
2023-02-02T09:11:06.268Z,14.13
2023-02-02T09:13:34.098Z,14.57
2023-02-02T09:16:02.070Z,17.33
2023-02-02T09:18:30.021Z,20.77
2023-02-02T09:21:00.524Z,14.00
2023-02-02T09:23:30.346Z,12.90
2023-02-02T09:25:59.593Z,16.13
2023-02-02T09:28:28.741Z,17.20
2023-02-02T09:30:56.503Z,12.00
2023-02-02T09:33:24.396Z,13.87
2023-02-02T09:35:52.088Z,16.43
2023-02-02T09:38:20.098Z,15.20
2023-02-02T09:40:47.811Z,11.00
2023-02-02T09:43:26.715Z,14.40
2023-02-02T09:45:57.759Z,11.33
2023-02-02T09:48:27.492Z,8.43
2023-02-02T09:50:55.878Z,8.70
2023-02-02T09:53:46.097Z,7.10
2023-02-02T09:56:24.131Z,11.33
2023-02-02T09:58:54.415Z,10.33
2023-02-02T10:01:23.959Z,12.13
2023-02-02T10:03:57.996Z,13.03
2023-02-02T10:06:29.580Z,11.30
2023-02-02T10:09:01.848Z,21.30
2023-02-02T10:11:33.091Z,19.73
2023-02-02T10:14:03.825Z,13.83
2023-02-02T10:16:31.604Z,19.67
2023-02-02T10:19:01.236Z,16.17
2023-02-02T10:21:34.012Z,20.30
2023-02-02T10:24:03.379Z,23.43
2023-02-02T10:26:37.173Z,23.90
2023-02-02T10:32:23.523Z,21.67
2023-02-02T10:35:13.550Z,23.87
2023-02-02T10:37:43.549Z,19.43
2023-02-02T10:40:18.756Z,19.13
2023-02-02T10:43:08.813Z,18.27
2023-02-02T10:45:38.165Z,18.70
2023-02-02T10:48:06.405Z,18.03
2023-02-02T10:50:34.192Z,17.60
2023-02-02T10:53:02.956Z,24.10
2023-02-02T10:55:33.847Z,16.97
2023-02-02T10:58:07.993Z,23.50
2023-02-02T11:00:42.219Z,18.93
2023-02-02T11:03:10.501Z,20.60
2023-02-02T11:05:55.605Z,21.27
2023-02-02T11:08:26.073Z,18.80
2023-02-02T11:10:54.307Z,18.47
2023-02-02T11:13:28.680Z,17.67
2023-02-02T11:16:24.037Z,19.90
2023-02-02T11:18:52.435Z,18.97
2023-02-02T11:21:21.454Z,18.13
2023-02-02T11:23:53.882Z,20.87
2023-02-02T11:26:21.617Z,19.67
2023-02-02T11:28:49.586Z,15.73
2023-02-02T11:31:33.267Z,20.83
2023-02-02T11:34:16.525Z,18.90
2023-02-02T11:36:59.612Z,22.53
2023-02-02T11:39:27.373Z,21.63
2023-02-02T11:42:01.271Z,23.93
2023-02-02T11:44:29.450Z,20.55
2023-02-02T11:46:58.709Z,21.52
2023-02-02T11:49:26.518Z,18.93
2023-02-02T11:51:59.459Z,22.33
2023-02-02T11:54:28.999Z,20.27
2023-02-02T11:57:05.166Z,18.30
2023-02-02T11:59:34.522Z,18.37
2023-02-02T12:02:29.016Z,17.73
2023-02-02T12:04:58.367Z,17.83
2023-02-02T12:07:28.346Z,18.30
2023-02-02T12:09:59.224Z,18.13
2023-02-02T12:12:34.097Z,17.43
2023-02-02T12:15:05.463Z,20.97
2023-02-02T12:17:38.880Z,19.93
2023-02-02T12:20:17.865Z,18.47
2023-02-02T12:23:08.663Z,21.60
2023-02-02T12:25:42.608Z,19.37
2023-02-02T12:28:17.826Z,18.77
2023-02-02T12:30:48.813Z,19.13
2023-02-02T12:33:31.837Z,20.00
2023-02-02T12:36:08.510Z,15.33
2023-02-02T12:38:57.687Z,17.73
2023-02-02T12:41:31.755Z,19.13
2023-02-02T12:44:01.314Z,17.43
2023-02-02T12:49:09.564Z,20.73
2023-02-02T12:51:46.704Z,18.53
2023-02-02T12:54:32.914Z,17.63
2023-02-02T12:57:06.035Z,18.17
2023-02-02T12:59:48.890Z,21.00
2023-02-02T13:02:19.193Z,14.20
2023-02-02T13:04:54.627Z,18.43
2023-02-02T13:07:30.143Z,15.70
2023-02-02T13:10:05.592Z,20.53
2023-02-02T13:12:34.297Z,15.20
2023-02-02T13:15:04.428Z,15.43
2023-02-02T13:17:35.096Z,15.53
2023-02-02T13:20:06.374Z,15.73
2023-02-02T13:22:42.277Z,11.03
2023-02-02T13:25:15.852Z,15.73
2023-02-02T13:27:58.028Z,19.73
2023-02-02T13:30:31.385Z,15.47
2023-02-02T13:33:01.059Z,16.03
2023-02-02T13:35:32.596Z,17.60
2023-02-02T13:38:04.196Z,15.80
2023-02-02T13:40:33.899Z,9.90
2023-02-02T13:43:07.635Z,16.10
2023-02-02T13:45:42.169Z,19.00
2023-02-02T13:48:23.901Z,19.47
2023-02-02T13:51:17.164Z,16.77
2023-02-02T13:53:56.875Z,15.13
2023-02-02T13:56:35.166Z,19.23
2023-02-02T13:59:09.175Z,20.47
2023-02-02T14:01:37.054Z,18.20
2023-02-02T14:04:06.869Z,25.07
2023-02-02T14:06:53.799Z,19.87
2023-02-02T14:09:21.494Z,20.40
2023-02-02T14:11:57.553Z,17.03
2023-02-02T14:14:35.229Z,20.40
2023-02-02T14:17:04.435Z,13.63
2023-02-02T14:19:51.535Z,16.57
2023-02-02T14:22:42.493Z,18.50
2023-02-02T14:25:47.638Z,22.03
2023-02-02T14:28:45.429Z,19.93
2023-02-02T14:31:44.256Z,20.60
2023-02-02T14:34:33.889Z,20.00
2023-02-02T14:37:46.503Z,26.23
2023-02-02T14:40:41.894Z,17.70
2023-02-02T14:43:36.413Z,22.17
2023-02-02T14:46:23.265Z,27.70
2023-02-02T14:49:13.339Z,23.10
2023-02-02T14:51:52.398Z,23.80
2023-02-02T14:54:26.171Z,24.63
2023-02-02T14:56:57.873Z,22.77
2023-02-02T14:59:28.933Z,24.33
2023-02-02T15:02:02.271Z,28.97
2023-02-02T15:04:30.079Z,23.83
2023-02-02T15:06:59.565Z,21.97
2023-02-02T15:09:39.702Z,28.30
2023-02-02T15:12:37.607Z,23.37
2023-02-02T15:15:11.363Z,20.93
2023-02-02T15:17:48.928Z,23.20
2023-02-02T15:20:21.077Z,24.63
2023-02-02T15:22:52.194Z,25.90
2023-02-02T15:25:24.938Z,21.90
2023-02-02T15:27:57.848Z,24.83
2023-02-02T15:30:25.775Z,27.13
2023-02-02T15:34:02.838Z,26.27
2023-02-02T15:36:32.417Z,24.17
2023-02-02T15:39:01.770Z,21.53
2023-02-02T15:41:32.367Z,23.77
2023-02-02T15:44:20.937Z,25.60
2023-02-02T15:46:48.950Z,25.97
2023-02-02T15:49:35.218Z,26.07
2023-02-02T15:52:13.547Z,25.13
2023-02-02T15:54:51.199Z,24.10
2023-02-02T15:57:32.789Z,21.30
2023-02-02T16:00:03.598Z,25.03
2023-02-02T16:02:35.427Z,25.43
2023-02-02T16:05:03.129Z,21.83
2023-02-02T16:07:33.680Z,21.73
2023-02-02T16:10:04.658Z,23.17
2023-02-02T16:12:32.927Z,19.97
2023-02-02T16:15:02.070Z,21.87
2023-02-02T16:17:30.770Z,21.33
2023-02-02T16:19:59.960Z,23.80
2023-02-02T16:22:27.706Z,22.30
2023-02-02T16:24:56.994Z,20.80
2023-02-02T16:27:26.295Z,17.27
2023-02-02T16:29:54.157Z,20.37
2023-02-02T16:32:30.605Z,23.13
2023-02-02T16:35:00.750Z,22.57
2023-02-02T16:37:32.010Z,20.50
2023-02-02T16:40:18.117Z,22.33
2023-02-02T16:42:45.822Z,23.50
2023-02-02T16:45:34.891Z,22.80
2023-02-02T16:48:21.308Z,23.80
2023-02-02T16:50:48.977Z,24.00
2023-02-02T16:53:22.277Z,22.23
2023-02-02T16:55:51.536Z,23.43
2023-02-02T16:58:21.634Z,20.47
2023-02-02T17:01:05.219Z,18.93
2023-02-02T17:03:43.217Z,23.23
2023-02-02T17:06:10.950Z,22.10
2023-02-02T17:08:39.404Z,21.93
2023-02-02T17:11:09.105Z,21.00
2023-02-02T17:13:41.323Z,22.37
2023-02-02T17:16:12.338Z,21.33
2023-02-02T17:18:41.498Z,21.93
2023-02-02T17:21:13.731Z,21.47
2023-02-02T17:23:41.496Z,20.87
2023-02-02T17:26:09.206Z,18.43
2023-02-02T17:28:36.875Z,19.77
2023-02-02T17:31:06.845Z,19.07
2023-02-02T17:33:35.164Z,22.70
2023-02-02T17:36:04.664Z,20.10
2023-02-02T17:38:33.260Z,22.20
2023-02-02T17:41:01.946Z,20.07
2023-02-02T17:43:30.039Z,20.13
2023-02-02T17:45:57.805Z,18.60
2023-02-02T17:48:25.664Z,20.60
2023-02-02T17:50:54.618Z,18.80
2023-02-02T17:53:23.768Z,16.90
2023-02-02T17:55:55.720Z,19.97
2023-02-02T17:58:23.535Z,22.90
2023-02-02T18:00:53.257Z,24.83
2023-02-02T18:03:22.322Z,21.30
2023-02-02T18:05:50.152Z,18.77
2023-02-02T18:08:18.178Z,20.83
2023-02-02T18:10:47.395Z,18.43
2023-02-02T18:13:15.866Z,21.47
2023-02-02T18:15:43.656Z,23.10
2023-02-02T18:18:12.484Z,17.63
2023-02-02T18:20:42.481Z,21.83
2023-02-02T18:23:10.519Z,20.07
2023-02-02T18:25:39.469Z,24.53
2023-02-02T18:28:08.869Z,17.90
2023-02-02T18:30:38.438Z,16.77
2023-02-02T18:33:06.403Z,19.77
2023-02-02T18:35:34.135Z,16.50
2023-02-02T18:38:01.924Z,17.27
2023-02-02T18:40:30.769Z,25.53
2023-02-02T18:42:58.507Z,24.83
2023-02-02T18:45:28.732Z,30.70
2023-02-02T18:47:56.533Z,17.57
2023-02-02T18:50:24.331Z,18.07
2023-02-02T18:52:53.213Z,17.83
2023-02-02T18:55:21.090Z,19.07
2023-02-02T18:57:53.641Z,19.60
2023-02-02T19:00:22.488Z,19.10
2023-02-02T19:02:51.563Z,21.03
2023-02-02T19:05:36.948Z,21.70
2023-02-02T19:08:05.813Z,23.37
2023-02-02T19:10:33.600Z,22.07
2023-02-02T19:13:10.971Z,23.40
2023-02-02T19:15:56.361Z,22.60
2023-02-02T19:18:27.689Z,25.23
2023-02-02T19:23:27.441Z,24.83
2023-02-02T19:25:55.459Z,23.73
2023-02-02T19:28:24.250Z,25.83
2023-02-02T19:30:52.458Z,33.00
2023-02-02T19:33:20.557Z,27.67
2023-02-02T19:35:52.448Z,31.77
2023-02-02T19:38:20.811Z,27.63
2023-02-02T19:40:52.037Z,34.03
2023-02-02T19:43:24.917Z,34.33
2023-02-02T19:45:53.221Z,33.00
2023-02-02T19:48:21.932Z,30.50
2023-02-02T19:50:53.646Z,32.27
2023-02-02T19:53:23.134Z,30.60
2023-02-02T19:55:51.438Z,35.03
2023-02-02T19:58:21.294Z,33.20
2023-02-02T20:00:49.108Z,32.73
2023-02-02T20:03:18.819Z,31.33
2023-02-02T20:05:47.514Z,32.43
2023-02-02T20:08:23.905Z,36.93
2023-02-02T20:10:52.378Z,31.27
2023-02-02T20:13:21.415Z,29.13
2023-02-02T20:15:49.897Z,31.90
2023-02-02T20:18:19.423Z,29.27
2023-02-02T20:20:48.945Z,29.47
2023-02-02T20:23:27.195Z,26.60
2023-02-02T20:25:54.871Z,27.13
2023-02-02T20:28:32.456Z,28.60
2023-02-02T20:31:00.185Z,32.10
2023-02-02T20:33:27.975Z,28.20
2023-02-02T20:35:56.232Z,25.80
2023-02-02T20:38:27.788Z,26.23
2023-02-02T20:40:55.663Z,29.63
2023-02-02T20:43:23.469Z,25.67
2023-02-02T20:45:51.240Z,22.17
2023-02-02T20:48:20.099Z,21.87
2023-02-02T20:50:47.803Z,23.33
2023-02-02T20:53:16.527Z,21.27
2023-02-02T20:55:45.722Z,23.13
2023-02-02T20:58:13.863Z,19.90
2023-02-02T21:00:42.034Z,20.77
2023-02-02T21:03:09.900Z,21.33
2023-02-02T21:05:38.049Z,18.53
2023-02-02T21:08:07.057Z,21.00
2023-02-02T21:10:35.209Z,20.03
2023-02-02T21:13:04.362Z,18.93
2023-02-02T21:15:32.149Z,23.10
2023-02-02T21:17:59.823Z,21.27
2023-02-02T21:20:27.963Z,20.93
2023-02-02T21:22:56.726Z,18.80
2023-02-02T21:25:24.620Z,19.90
2023-02-02T21:27:52.343Z,21.20
2023-02-02T21:30:21.520Z,20.27
2023-02-02T21:32:50.016Z,18.40
2023-02-02T21:35:18.162Z,19.93
2023-02-02T21:37:47.169Z,22.37
2023-02-02T21:40:16.876Z,19.97
2023-02-02T21:42:46.401Z,19.23
2023-02-02T21:45:35.023Z,19.93
2023-02-02T21:48:03.609Z,22.00
2023-02-02T21:50:33.175Z,21.90
2023-02-02T21:53:14.063Z,22.43
2023-02-02T21:55:41.819Z,19.70
2023-02-02T21:58:15.487Z,18.50
2023-02-02T22:00:44.740Z,24.10
2023-02-02T22:03:23.865Z,17.47
2023-02-02T22:05:51.564Z,20.50
2023-02-02T22:08:21.743Z,16.50
2023-02-02T22:10:49.525Z,20.67
2023-02-02T22:13:18.378Z,23.20
2023-02-02T22:15:51.679Z,18.70
2023-02-02T22:18:21.779Z,17.40
2023-02-02T22:20:50.728Z,18.23
2023-02-02T22:23:20.255Z,18.30
2023-02-02T22:25:49.194Z,19.97
2023-02-02T22:28:20.500Z,20.23
2023-02-02T22:30:51.158Z,17.10
2023-02-02T22:33:18.959Z,14.03
2023-02-02T22:35:47.197Z,15.40
2023-02-02T22:38:17.271Z,15.33
2023-02-02T22:40:45.250Z,16.57
2023-02-02T22:43:13.579Z,15.50
2023-02-02T22:45:41.442Z,14.93
2023-02-02T22:48:10.487Z,14.43
2023-02-02T22:50:38.900Z,14.03
2023-02-02T22:53:08.442Z,17.33
2023-02-02T22:55:36.770Z,17.83
2023-02-02T22:58:04.496Z,13.73
2023-02-02T23:00:34.585Z,16.10
2023-02-02T23:03:03.263Z,12.67
2023-02-02T23:05:32.646Z,16.87
2023-02-02T23:08:00.424Z,18.87
2023-02-02T23:10:35.055Z,12.27
2023-02-02T23:13:03.629Z,15.77
2023-02-02T23:15:31.578Z,14.10
2023-02-02T23:17:59.557Z,15.70
2023-02-02T23:20:27.800Z,20.17
2023-02-02T23:22:57.066Z,18.00
2023-02-02T23:25:24.844Z,14.97
2023-02-02T23:27:52.489Z,16.37
2023-02-02T23:30:22.186Z,17.90
2023-02-02T23:32:49.940Z,15.77
2023-02-02T23:35:17.942Z,13.23
2023-02-02T23:37:45.664Z,12.97
2023-02-02T23:40:15.103Z,15.60
2023-02-02T23:42:42.760Z,10.97
2023-02-02T23:45:11.159Z,14.47
2023-02-02T23:47:38.805Z,14.10
2023-02-02T23:50:08.028Z,14.27
2023-02-02T23:52:35.770Z,15.10
2023-02-02T23:55:03.512Z,17.90
2023-02-02T23:57:33.716Z,11.00
